McKenna, Washington
Current Conditions -  °F | °C
As of 1:58 PM on Saturday 25 Oct 2014 (Local Time) from KGRF Reporting Station
Drizzle Drizzle  
Wind Chill: 56°   Ceiling: 5500
Heat Index: 56°   Visibility: 10mi
Dew Point: 55°   Wind: 5mph
Humidity: 95%   Direction: 80°E
Pressure: 29.31"   Gusts: NA
Location:  46.93°N, 122.56°W
Report Text: KGRF 252058Z AUTO 08004KT 10SM DZ FEW018 OVC055 13/13 A2931 RMK AO2 RAE2011B2031E2041DZB2011 SLP929 P0001 60001 T01330125 57039 $
Loading
Personal Weather Stations






























Interactive Weather Map
Tropical Storm Tracking
New forecast layout! Learn more

10-Day Weather Forecast

Advertisements
Track Severe Weather on mobile